Archer City, TX

11:48 AM CDT on April 01, 2015 (GMT -0500)
Graham | | Change Station
CLOSE
Current Station
Airport
Location: Graham,
Elevation: 1122 ft
Nearby Weather Stations

Elev 1122 ft 33.11 °N, 98.56 °W | Updated 13 minutes ago

Mostly Cloudy
Mostly Cloudy
73 °F
Feels Like 73 °F
N
7
Wind Variable Wind from SE

Today
High -- | Low -- °F
--% Chance of Precip.
Yesterday
High -- | Low -- °F
Precip. -- in
7:22 AM 7:54 PM
Waxing Gibbous, 93% visible
Pressure 29.86 in
Visibility 10.0 miles
Clouds Scattered Clouds 11000 ft
Dew Point 65 °F
Humidity 75%
Rainfall 0.28 in
Snow Depth Not available.
UV 6 out of 12
Pollen 11.50 out of 12
Air Quality Not available.
Flu Activity Not available.
METAR KRPH 011635Z AUTO 14006KT 10SM SCT110 23/18 A2986 RMK AO2 T02290182

More Conditions Fewer Conditions

Pressure 29.86 in
Visibility 10.0 miles
Clouds Scattered Clouds 11000 ft
Dew Point 65 °F
Humidity 75%
Rainfall 0.28 in
Snow Depth Not available.
UV 6 out of 12
Pollen 11.50 out of 12
Air Quality Not available.
Flu Activity Not available.
METAR KRPH 011635Z AUTO 14006KT 10SM SCT110 23/18 A2986 RMK AO2 T02290182

More Conditions Fewer Conditions

10-Day Weather Forecast

Almanac

Astronomy

Apr. 01, 2015 Rise Set
Actual Time
Civil Twilight
Nautical Twilight
Astronomical Twilight
Moon
Length of Visible Light
Length of Day
Tomorrow will be .
, % of the Moon is Illuminated

Today's Extremes

State Highs State Lows

Community

WunderPhotos

Upload Photos

1,810,005 photos uploaded!

WunderBlogs® & News

Nearby

Air Quality

  Air Quality AQ Index Pollutant
Not available.

Snow Depth

Station Depth Elevation

Earthquake Activity

City Distance Mag. Time & Date
Minimum magnitude displayed is 2.5.

Coastal Water Temperatures

Place Temperature

Stations

Nearby Weather Stations

Station Location Temp. Windchill Dew Point Humidity Wind Precip. Elev Updated Type